FCW9111 KGCN-KTEX
Flight info
| Callsign | FCW9111 |
|---|---|
| Flight time | N/A |
| Altitude | 12000 |
| Route | KGCN/21 GRAND4 DCT HOCEE DCT KD42Q DCT SEDUZ DCT ETL DCT CEPMA KTEX/09 |
| Aircraft | SF50/L-SR/S |
Departure
| Time | 2026-04-30 14:16 |
|---|---|
| Airport | Grand Canyon National Park Airport (KGCN) |
Arrival
| Time | N/A |
|---|---|
| Airport | Telluride Regional Airport (KTEX) |
| Time | Latitude | Longitude | Altitude | Speed | Heading |
|---|---|---|---|---|---|
| 2026-04-30 14:11 | 35.96188 | -112.13420 | 6614 ft | 0 kts | 193° |
| 2026-04-30 14:13 | 35.96183 | -112.13422 | 6614 ft | 2 kts | 208° |
| 2026-04-30 14:13 | 35.96190 | -112.13450 | 6614 ft | 9 kts | 301° |
| 2026-04-30 14:13 | 35.96170 | -112.13530 | 6614 ft | 14 kts | 223° |
| 2026-04-30 14:13 | 35.96143 | -112.13564 | 6614 ft | 0 kts | 235° |
| 2026-04-30 14:14 | 35.96135 | -112.13586 | 6614 ft | 0 kts | 283° |
| 2026-04-30 14:14 | 35.96142 | -112.13605 | 6614 ft | 11 kts | 290° |
| 2026-04-30 14:15 | 35.96140 | -112.13664 | 6611 ft | 0 kts | 289° |
| 2026-04-30 14:15 | 35.96146 | -112.13693 | 6610 ft | 11 kts | 282° |
| 2026-04-30 14:15 | 35.96074 | -112.13810 | 6606 ft | 26 kts | 220° |
| 2026-04-30 14:15 | 35.95901 | -112.13997 | 6602 ft | 39 kts | 221° |
| 2026-04-30 14:16 | 35.95563 | -112.14313 | 6591 ft | 91 kts | 220° |
| 2026-04-30 14:16 | 35.95057 | -112.14908 | 6962 ft | 102 kts | 222° |
| 2026-04-30 14:16 | 35.94457 | -112.15480 | 7351 ft | 114 kts | 218° |
| 2026-04-30 14:16 | 35.93695 | -112.15672 | 7791 ft | 123 kts | 189° |
| 2026-04-30 14:17 | 35.92886 | -112.16123 | 8069 ft | 146 kts | 216° |
| 2026-04-30 14:17 | 35.92026 | -112.16931 | 8327 ft | 166 kts | 223° |
| 2026-04-30 14:17 | 35.91122 | -112.17977 | 8423 ft | 186 kts | 224° |
| 2026-04-30 14:17 | 35.90177 | -112.19130 | 8885 ft | 194 kts | 225° |
| 2026-04-30 14:18 | 35.89234 | -112.20279 | 9822 ft | 190 kts | 224° |
| 2026-04-30 14:18 | 35.88212 | -112.21522 | 10006 ft | 226 kts | 224° |
| 2026-04-30 14:18 | 35.85878 | -112.24360 | 11474 ft | 216 kts | 225° |
| 2026-04-30 14:19 | 35.83327 | -112.25094 | 12994 ft | 221 kts | 152° |
| 2026-04-30 14:19 | 35.82304 | -112.23603 | 13273 ft | 236 kts | 106° |
| 2026-04-30 14:19 | 35.82312 | -112.21722 | 14462 ft | 209 kts | 72° |
| 2026-04-30 14:20 | 35.83045 | -112.20210 | 15230 ft | 209 kts | 52° |
| 2026-04-30 14:20 | 35.83953 | -112.18786 | 15855 ft | 212 kts | 53° |
| 2026-04-30 14:20 | 35.85611 | -112.15729 | 17097 ft | 217 kts | 57° |
| 2026-04-30 14:21 | 35.86160 | -112.14697 | 17482 ft | 218 kts | 57° |
| 2026-04-30 14:21 | 35.87000 | -112.13129 | 18038 ft | 220 kts | 56° |
| 2026-04-30 14:21 | 35.88990 | -112.09419 | 19228 ft | 225 kts | 57° |
| 2026-04-30 14:22 | 35.89776 | -112.07750 | 19671 ft | 228 kts | 69° |
| 2026-04-30 14:22 | 35.89955 | -112.04412 | 20004 ft | 248 kts | 94° |
| 2026-04-30 14:22 | 35.89822 | -112.02223 | 20012 ft | 262 kts | 94° |
| 2026-04-30 14:23 | 35.90168 | -111.97617 | 20007 ft | 283 kts | 76° |
| 2026-04-30 14:23 | 35.91842 | -111.93090 | 20007 ft | 300 kts | 54° |
| 2026-04-30 14:24 | 35.94641 | -111.89309 | 20898 ft | 279 kts | 47° |
| 2026-04-30 14:24 | 35.95843 | -111.87585 | 21770 ft | 251 kts | 51° |
| 2026-04-30 14:25 | 35.97902 | -111.84470 | 22974 ft | 231 kts | 50° |
| 2026-04-30 14:25 | 36.00097 | -111.81252 | 23008 ft | 257 kts | 50° |
| 2026-04-30 14:26 | 36.02455 | -111.77775 | 23012 ft | 273 kts | 50° |
| 2026-04-30 14:26 | 36.03687 | -111.75956 | 23009 ft | 279 kts | 50° |
| 2026-04-30 14:26 | 36.06235 | -111.72194 | 23009 ft | 292 kts | 50° |
| 2026-04-30 14:27 | 36.07550 | -111.70248 | 23011 ft | 297 kts | 50° |
| 2026-04-30 14:27 | 36.08888 | -111.68273 | 23008 ft | 301 kts | 50° |
| 2026-04-30 14:27 | 36.10240 | -111.66274 | 23009 ft | 305 kts | 50° |
| 2026-04-30 14:28 | 36.12975 | -111.62224 | 23010 ft | 309 kts | 50° |
| 2026-04-30 14:28 | 36.14360 | -111.60172 | 23009 ft | 310 kts | 50° |
| 2026-04-30 14:28 | 36.15743 | -111.58120 | 23009 ft | 312 kts | 50° |
| 2026-04-30 14:28 | 36.17131 | -111.56058 | 23009 ft | 313 kts | 50° |
| 2026-04-30 14:29 | 36.19682 | -111.51698 | 23007 ft | 313 kts | 57° |
| 2026-04-30 14:29 | 36.22102 | -111.47198 | 23008 ft | 314 kts | 56° |
| 2026-04-30 14:30 | 36.25763 | -111.40431 | 23010 ft | 316 kts | 56° |
| 2026-04-30 14:31 | 36.28207 | -111.35899 | 23010 ft | 316 kts | 56° |
| 2026-04-30 14:31 | 36.30653 | -111.31357 | 23009 ft | 317 kts | 56° |
| 2026-04-30 14:31 | 36.31874 | -111.29084 | 23009 ft | 317 kts | 56° |
| 2026-04-30 14:32 | 36.34324 | -111.24528 | 23008 ft | 317 kts | 56° |
| 2026-04-30 14:32 | 36.35537 | -111.22266 | 23010 ft | 317 kts | 56° |
| 2026-04-30 14:32 | 36.36762 | -111.19985 | 23009 ft | 318 kts | 56° |
| 2026-04-30 14:33 | 36.37985 | -111.17706 | 23009 ft | 318 kts | 56° |
| 2026-04-30 14:33 | 36.40434 | -111.13136 | 23010 ft | 318 kts | 56° |
| 2026-04-30 14:33 | 36.41659 | -111.10845 | 23008 ft | 318 kts | 56° |
| 2026-04-30 14:34 | 36.42890 | -111.08547 | 23009 ft | 318 kts | 56° |
| 2026-04-30 14:34 | 36.44112 | -111.06261 | 23008 ft | 318 kts | 56° |
| 2026-04-30 14:34 | 36.45321 | -111.03992 | 23009 ft | 318 kts | 56° |
| 2026-04-30 14:34 | 36.46547 | -111.01695 | 23009 ft | 318 kts | 56° |
| 2026-04-30 14:35 | 36.48994 | -110.97106 | 23009 ft | 319 kts | 56° |
| 2026-04-30 14:35 | 36.50218 | -110.94808 | 23010 ft | 319 kts | 56° |
| 2026-04-30 14:35 | 36.51440 | -110.92513 | 23009 ft | 319 kts | 56° |
| 2026-04-30 14:36 | 36.52662 | -110.90216 | 23010 ft | 319 kts | 56° |
| 2026-04-30 14:36 | 36.53886 | -110.87916 | 23010 ft | 319 kts | 56° |
| 2026-04-30 14:36 | 36.55113 | -110.85607 | 23009 ft | 319 kts | 56° |
| 2026-04-30 14:36 | 36.56329 | -110.83314 | 23010 ft | 319 kts | 56° |
| 2026-04-30 14:37 | 36.57542 | -110.81030 | 23010 ft | 319 kts | 56° |
| 2026-04-30 14:37 | 36.58763 | -110.78727 | 23010 ft | 319 kts | 57° |
| 2026-04-30 14:37 | 36.59994 | -110.76399 | 23009 ft | 319 kts | 57° |
| 2026-04-30 14:37 | 36.61202 | -110.74119 | 23010 ft | 319 kts | 57° |
| 2026-04-30 14:38 | 36.62425 | -110.71807 | 23010 ft | 319 kts | 57° |
| 2026-04-30 14:38 | 36.63641 | -110.69503 | 23009 ft | 319 kts | 57° |
| 2026-04-30 14:38 | 36.64866 | -110.67187 | 23010 ft | 319 kts | 57° |
| 2026-04-30 14:38 | 36.66082 | -110.64885 | 23009 ft | 319 kts | 57° |
| 2026-04-30 14:39 | 36.67299 | -110.62580 | 23010 ft | 319 kts | 57° |
| 2026-04-30 14:39 | 36.68518 | -110.60270 | 23008 ft | 319 kts | 57° |
| 2026-04-30 14:39 | 36.69737 | -110.57954 | 23010 ft | 319 kts | 57° |
| 2026-04-30 14:40 | 36.72157 | -110.53358 | 23009 ft | 319 kts | 57° |
| 2026-04-30 14:40 | 36.73375 | -110.51041 | 23010 ft | 319 kts | 57° |
| 2026-04-30 14:40 | 36.74590 | -110.48725 | 23009 ft | 319 kts | 57° |
| 2026-04-30 14:40 | 36.75809 | -110.46405 | 23010 ft | 319 kts | 57° |
| 2026-04-30 14:41 | 36.77024 | -110.44089 | 23008 ft | 319 kts | 57° |
| 2026-04-30 14:41 | 36.78240 | -110.41769 | 23010 ft | 319 kts | 57° |
| 2026-04-30 14:41 | 36.79457 | -110.39447 | 23009 ft | 319 kts | 57° |
| 2026-04-30 14:41 | 36.80672 | -110.37128 | 23009 ft | 319 kts | 57° |
| 2026-04-30 14:42 | 36.81889 | -110.34805 | 23010 ft | 319 kts | 57° |
| 2026-04-30 14:42 | 36.83100 | -110.32489 | 23009 ft | 319 kts | 57° |
| 2026-04-30 14:42 | 36.84311 | -110.30171 | 23009 ft | 319 kts | 57° |
| 2026-04-30 14:42 | 36.85522 | -110.27854 | 23010 ft | 319 kts | 57° |
| 2026-04-30 14:43 | 36.86731 | -110.25536 | 23009 ft | 318 kts | 57° |
| 2026-04-30 14:43 | 36.87940 | -110.23215 | 23010 ft | 318 kts | 57° |
| 2026-04-30 14:43 | 36.89148 | -110.20896 | 23008 ft | 318 kts | 57° |
| 2026-04-30 14:43 | 36.90354 | -110.18582 | 23010 ft | 318 kts | 57° |
| 2026-04-30 14:44 | 36.91559 | -110.16265 | 23010 ft | 318 kts | 57° |
| 2026-04-30 14:44 | 36.92748 | -110.13978 | 23009 ft | 318 kts | 57° |
| 2026-04-30 14:44 | 36.93968 | -110.11631 | 23010 ft | 318 kts | 57° |
| 2026-04-30 14:44 | 36.95159 | -110.09342 | 23010 ft | 318 kts | 57° |
| 2026-04-30 14:45 | 36.96359 | -110.07028 | 23009 ft | 318 kts | 57° |
| 2026-04-30 14:45 | 36.97560 | -110.04712 | 23010 ft | 317 kts | 57° |
| 2026-04-30 14:45 | 36.98765 | -110.02391 | 23009 ft | 317 kts | 57° |
| 2026-04-30 14:45 | 36.99969 | -110.00066 | 23010 ft | 317 kts | 57° |
| 2026-04-30 14:46 | 37.01170 | -109.97758 | 23009 ft | 317 kts | 57° |
| 2026-04-30 14:46 | 37.02386 | -109.95459 | 23010 ft | 317 kts | 56° |
| 2026-04-30 14:46 | 37.03600 | -109.93148 | 23010 ft | 317 kts | 57° |
| 2026-04-30 14:46 | 37.04805 | -109.90843 | 23009 ft | 317 kts | 57° |
| 2026-04-30 14:47 | 37.06012 | -109.88537 | 23010 ft | 317 kts | 57° |
| 2026-04-30 14:47 | 37.07223 | -109.86226 | 23008 ft | 317 kts | 57° |
| 2026-04-30 14:47 | 37.08429 | -109.83921 | 23009 ft | 316 kts | 57° |
| 2026-04-30 14:47 | 37.09634 | -109.81618 | 23009 ft | 316 kts | 57° |
| 2026-04-30 14:48 | 37.10839 | -109.79310 | 23010 ft | 316 kts | 57° |
| 2026-04-30 14:48 | 37.12030 | -109.77029 | 23010 ft | 316 kts | 57° |
| 2026-04-30 14:48 | 37.13248 | -109.74697 | 23010 ft | 316 kts | 57° |
| 2026-04-30 14:48 | 37.14455 | -109.72381 | 23011 ft | 316 kts | 57° |
| 2026-04-30 14:49 | 37.15642 | -109.70098 | 23010 ft | 316 kts | 57° |
| 2026-04-30 14:49 | 37.16848 | -109.67782 | 23009 ft | 316 kts | 57° |
| 2026-04-30 14:49 | 37.18048 | -109.65476 | 23010 ft | 316 kts | 57° |
| 2026-04-30 14:49 | 37.19250 | -109.63162 | 23011 ft | 316 kts | 57° |
| 2026-04-30 14:50 | 37.21655 | -109.58532 | 23010 ft | 316 kts | 57° |
| 2026-04-30 14:50 | 37.22856 | -109.56217 | 23009 ft | 316 kts | 57° |
| 2026-04-30 14:51 | 37.25256 | -109.51587 | 23009 ft | 317 kts | 57° |
| 2026-04-30 14:51 | 37.26455 | -109.49272 | 23010 ft | 317 kts | 57° |
| 2026-04-30 14:51 | 37.28850 | -109.44639 | 23000 ft | 317 kts | 57° |
| 2026-04-30 14:52 | 37.30053 | -109.42310 | 22985 ft | 317 kts | 57° |
| 2026-04-30 14:52 | 37.32453 | -109.37658 | 22985 ft | 317 kts | 57° |
| 2026-04-30 14:52 | 37.33585 | -109.35292 | 22982 ft | 316 kts | 62° |
| 2026-04-30 14:53 | 37.35581 | -109.30345 | 22900 ft | 318 kts | 63° |
| 2026-04-30 14:53 | 37.36606 | -109.27794 | 21748 ft | 329 kts | 63° |
| 2026-04-30 14:54 | 37.38615 | -109.22985 | 19275 ft | 296 kts | 56° |
| 2026-04-30 14:54 | 37.41277 | -109.19347 | 17002 ft | 270 kts | 45° |
| 2026-04-30 14:55 | 37.43581 | -109.16064 | 15498 ft | 237 kts | 51° |
| 2026-04-30 14:55 | 37.44610 | -109.14508 | 15005 ft | 220 kts | 49° |
| 2026-04-30 14:55 | 37.46350 | -109.11956 | 14989 ft | 168 kts | 49° |
| 2026-04-30 14:56 | 37.47724 | -109.09928 | 14990 ft | 138 kts | 50° |
| 2026-04-30 14:56 | 37.48866 | -109.08243 | 14987 ft | 116 kts | 50° |
| 2026-04-30 14:57 | 37.49367 | -109.07507 | 14984 ft | 106 kts | 49° |
| 2026-04-30 14:57 | 37.50513 | -109.05819 | 15225 ft | 153 kts | 49° |
| 2026-04-30 14:58 | 37.52186 | -109.03351 | 15188 ft | 222 kts | 50° |
| 2026-04-30 14:58 | 37.53239 | -109.01793 | 15097 ft | 244 kts | 49° |
| 2026-04-30 14:58 | 37.55573 | -108.98341 | 15009 ft | 264 kts | 50° |
| 2026-04-30 14:59 | 37.57963 | -108.94804 | 15010 ft | 269 kts | 50° |
| 2026-04-30 15:00 | 37.61624 | -108.89380 | 15010 ft | 272 kts | 50° |
| 2026-04-30 15:00 | 37.64081 | -108.85733 | 15009 ft | 273 kts | 50° |
| 2026-04-30 15:01 | 37.66546 | -108.82069 | 15009 ft | 274 kts | 50° |
| 2026-04-30 15:01 | 37.67361 | -108.80857 | 15009 ft | 274 kts | 50° |
| 2026-04-30 15:01 | 37.70242 | -108.76567 | 15009 ft | 274 kts | 50° |
| 2026-04-30 15:02 | 37.71459 | -108.74754 | 15009 ft | 273 kts | 50° |
| 2026-04-30 15:02 | 37.72687 | -108.72926 | 15009 ft | 273 kts | 50° |
| 2026-04-30 15:03 | 37.76370 | -108.67429 | 15008 ft | 271 kts | 50° |
| 2026-04-30 15:03 | 37.78800 | -108.63798 | 15007 ft | 270 kts | 50° |
| 2026-04-30 15:04 | 37.81220 | -108.60177 | 15007 ft | 269 kts | 50° |
| 2026-04-30 15:04 | 37.84839 | -108.54755 | 15008 ft | 271 kts | 50° |
| 2026-04-30 15:05 | 37.88497 | -108.49268 | 15009 ft | 272 kts | 50° |
| 2026-04-30 15:06 | 37.90936 | -108.45605 | 15008 ft | 272 kts | 50° |
| 2026-04-30 15:06 | 37.93360 | -108.41957 | 15007 ft | 269 kts | 49° |
| 2026-04-30 15:07 | 37.95761 | -108.38349 | 15005 ft | 267 kts | 51° |
| 2026-04-30 15:07 | 37.97742 | -108.35343 | 15006 ft | 268 kts | 49° |
| 2026-04-30 15:08 | 38.00537 | -108.31130 | 15006 ft | 269 kts | 50° |
| 2026-04-30 15:08 | 38.03102 | -108.26427 | 13164 ft | 252 kts | 75° |
| 2026-04-30 15:09 | 38.03013 | -108.22586 | 12991 ft | 192 kts | 108° |
| 2026-04-30 15:09 | 38.02091 | -108.19559 | 12991 ft | 179 kts | 111° |
| 2026-04-30 15:10 | 38.01210 | -108.16668 | 12990 ft | 173 kts | 111° |
| 2026-04-30 15:11 | 37.99630 | -108.11081 | 12990 ft | 165 kts | 106° |
| 2026-04-30 15:11 | 37.99031 | -108.08267 | 12993 ft | 166 kts | 105° |
| 2026-04-30 15:12 | 37.97565 | -108.04439 | 12992 ft | 167 kts | 99° |
| 2026-04-30 15:13 | 37.97127 | -108.01437 | 12685 ft | 184 kts | 101° |
| 2026-04-30 15:14 | 37.96034 | -107.94529 | 9870 ft | 164 kts | 99° |
| 2026-04-30 15:14 | 37.95172 | -107.90834 | 9433 ft | 134 kts | 140° |
| 2026-04-30 15:16 | 37.91446 | -107.95103 | 10924 ft | 179 kts | 262° |
| 2026-04-30 15:17 | 37.93580 | -108.01671 | 11422 ft | 187 kts | 319° |
| 2026-04-30 15:18 | 37.97630 | -107.98778 | 10559 ft | 160 kts | 84° |
| 2026-04-30 15:19 | 37.96297 | -107.94836 | 9609 ft | 161 kts | 116° |